sensor_id;sensor_type;location;lat;lon;timestamp;pressure;altitude;pressure_sealevel;temperature;humidity
2549;BME280;1284;53.520;10.248;2023-05-20T00:00:07;102002.59;;;15.29;49.86
2549;BME280;1284;53.520;10.248;2023-05-20T00:02:33;102000.50;;;15.23;49.75
2549;BME280;1284;53.520;10.248;2023-05-20T00:04:59;102002.78;;;15.21;50.19
2549;BME280;1284;53.520;10.248;2023-05-20T00:07:24;102005.06;;;15.19;50.38
2549;BME280;1284;53.520;10.248;2023-05-20T00:09:50;102015.06;;;15.15;50.25
2549;BME280;1284;53.520;10.248;2023-05-20T00:12:16;102012.50;;;15.22;50.31
2549;BME280;1284;53.520;10.248;2023-05-20T00:14:41;102004.34;;;15.22;50.76
2549;BME280;1284;53.520;10.248;2023-05-20T00:17:07;102007.50;;;15.24;50.24
2549;BME280;1284;53.520;10.248;2023-05-20T00:19:32;102006.84;;;14.96;50.73
2549;BME280;1284;53.520;10.248;2023-05-20T00:21:58;102002.53;;;14.79;50.82
2549;BME280;1284;53.520;10.248;2023-05-20T00:24:24;102009.63;;;14.84;50.84
2549;BME280;1284;53.520;10.248;2023-05-20T00:26:49;102007.38;;;14.86;51.05
2549;BME280;1284;53.520;10.248;2023-05-20T00:29:15;102013.91;;;14.85;51.36
2549;BME280;1284;53.520;10.248;2023-05-20T00:31:40;102005.69;;;14.97;50.95
2549;BME280;1284;53.520;10.248;2023-05-20T00:34:06;102011.47;;;14.80;51.21
2549;BME280;1284;53.520;10.248;2023-05-20T00:36:33;102011.13;;;14.81;51.27
2549;BME280;1284;53.520;10.248;2023-05-20T00:38:59;102007.19;;;14.79;51.54
2549;BME280;1284;53.520;10.248;2023-05-20T00:41:25;102013.81;;;14.81;51.43
2549;BME280;1284;53.520;10.248;2023-05-20T00:43:54;102006.91;;;14.84;51.61
2549;BME280;1284;53.520;10.248;2023-05-20T00:46:20;102011.91;;;14.82;51.83
2549;BME280;1284;53.520;10.248;2023-05-20T00:48:46;102006.56;;;14.70;51.48
2549;BME280;1284;53.520;10.248;2023-05-20T00:51:13;102004.56;;;14.82;51.69
2549;BME280;1284;53.520;10.248;2023-05-20T00:53:39;102001.66;;;14.75;52.08
2549;BME280;1284;53.520;10.248;2023-05-20T00:56:06;102002.63;;;14.67;51.71
2549;BME280;1284;53.520;10.248;2023-05-20T00:58:32;101993.63;;;14.63;51.87
2549;BME280;1284;53.520;10.248;2023-05-20T01:00:58;101996.94;;;14.57;51.88
2549;BME280;1284;53.520;10.248;2023-05-20T01:03:23;101989.69;;;14.61;52.20
2549;BME280;1284;53.520;10.248;2023-05-20T01:05:49;101992.31;;;14.57;52.17
2549;BME280;1284;53.520;10.248;2023-05-20T01:08:15;101997.00;;;14.44;52.28
2549;BME280;1284;53.520;10.248;2023-05-20T01:10:44;101986.25;;;14.48;52.59
2549;BME280;1284;53.520;10.248;2023-05-20T01:13:14;101983.44;;;14.44;52.67
2549;BME280;1284;53.520;10.248;2023-05-20T01:15:42;101981.97;;;14.47;52.63
2549;BME280;1284;53.520;10.248;2023-05-20T01:18:09;101982.31;;;14.45;52.63
2549;BME280;1284;53.520;10.248;2023-05-20T01:20:36;101980.50;;;14.50;52.91
2549;BME280;1284;53.520;10.248;2023-05-20T01:23:03;101982.94;;;14.55;52.58
2549;BME280;1284;53.520;10.248;2023-05-20T01:25:28;101984.63;;;14.59;52.56
2549;BME280;1284;53.520;10.248;2023-05-20T01:27:55;101987.41;;;14.63;52.65
2549;BME280;1284;53.520;10.248;2023-05-20T01:30:35;101984.22;;;14.29;53.00
2549;BME280;1284;53.520;10.248;2023-05-20T01:35:54;101990.94;;;14.08;53.58
2549;BME280;1284;53.520;10.248;2023-05-20T01:38:20;101981.38;;;14.26;53.59
2549;BME280;1284;53.520;10.248;2023-05-20T01:40:47;101990.88;;;14.32;53.17
2549;BME280;1284;53.520;10.248;2023-05-20T01:43:15;101992.34;;;14.29;53.27
2549;BME280;1284;53.520;10.248;2023-05-20T01:45:41;101985.59;;;14.11;53.69
2549;BME280;1284;53.520;10.248;2023-05-20T01:48:09;101983.75;;;14.27;53.23
2549;BME280;1284;53.520;10.248;2023-05-20T01:50:36;101983.75;;;14.27;53.49
2549;BME280;1284;53.520;10.248;2023-05-20T01:53:02;101975.97;;;14.26;53.68
2549;BME280;1284;53.520;10.248;2023-05-20T01:55:27;101982.06;;;14.23;53.57
2549;BME280;1284;53.520;10.248;2023-05-20T01:57:53;101988.09;;;14.16;53.94
2549;BME280;1284;53.520;10.248;2023-05-20T02:00:19;101983.56;;;14.20;53.63
2549;BME280;1284;53.520;10.248;2023-05-20T02:02:45;101985.66;;;14.27;53.62
2549;BME280;1284;53.520;10.248;2023-05-20T02:05:11;101992.06;;;14.34;53.55
2549;BME280;1284;53.520;10.248;2023-05-20T02:07:37;101986.50;;;14.15;53.54
2549;BME280;1284;53.520;10.248;2023-05-20T02:10:03;101990.13;;;14.07;53.93
2549;BME280;1284;53.520;10.248;2023-05-20T02:12:28;101990.84;;;14.04;54.38
2549;BME280;1284;53.520;10.248;2023-05-20T02:14:54;101984.94;;;14.14;54.06
2549;BME280;1284;53.520;10.248;2023-05-20T02:17:20;101975.56;;;14.12;54.58
2549;BME280;1284;53.520;10.248;2023-05-20T02:19:46;101975.28;;;14.01;54.66
2549;BME280;1284;53.520;10.248;2023-05-20T02:22:12;101975.97;;;13.98;54.61
2549;BME280;1284;53.520;10.248;2023-05-20T02:27:23;101971.19;;;14.07;55.02
2549;BME280;1284;53.520;10.248;2023-05-20T02:29:49;101971.44;;;14.02;55.04
2549;BME280;1284;53.520;10.248;2023-05-20T02:35:00;101970.78;;;14.21;55.16
2549;BME280;1284;53.520;10.248;2023-05-20T02:37:26;101961.16;;;14.23;55.21
2549;BME280;1284;53.520;10.248;2023-05-20T02:39:53;101970.09;;;14.24;55.25
2549;BME280;1284;53.520;10.248;2023-05-20T02:42:18;101966.47;;;14.32;55.53
2549;BME280;1284;53.520;10.248;2023-05-20T02:44:44;101969.66;;;14.22;55.52
2549;BME280;1284;53.520;10.248;2023-05-20T02:47:12;101961.88;;;14.20;55.72
2549;BME280;1284;53.520;10.248;2023-05-20T02:49:38;101974.38;;;14.25;55.96
2549;BME280;1284;53.520;10.248;2023-05-20T02:52:04;101966.66;;;14.11;56.49
2549;BME280;1284;53.520;10.248;2023-05-20T02:54:29;101968.09;;;13.93;57.58
2549;BME280;1284;53.520;10.248;2023-05-20T02:56:55;101972.53;;;13.86;57.99
2549;BME280;1284;53.520;10.248;2023-05-20T02:59:21;101972.63;;;13.89;58.65
2549;BME280;1284;53.520;10.248;2023-05-20T03:01:46;101971.56;;;13.94;58.59
2549;BME280;1284;53.520;10.248;2023-05-20T03:04:11;101971.25;;;13.95;58.98
2549;BME280;1284;53.520;10.248;2023-05-20T03:06:37;101971.91;;;13.92;59.49
2549;BME280;1284;53.520;10.248;2023-05-20T03:09:02;101985.38;;;13.89;60.19
2549;BME280;1284;53.520;10.248;2023-05-20T03:11:28;101973.50;;;13.93;59.85
2549;BME280;1284;53.520;10.248;2023-05-20T03:13:54;101986.50;;;13.88;61.05
2549;BME280;1284;53.520;10.248;2023-05-20T03:16:19;101977.81;;;13.82;61.76
2549;BME280;1284;53.520;10.248;2023-05-20T03:18:45;101986.28;;;13.81;61.89
2549;BME280;1284;53.520;10.248;2023-05-20T03:21:11;101985.28;;;13.85;61.70
2549;BME280;1284;53.520;10.248;2023-05-20T03:23:37;101989.53;;;13.86;62.01
2549;BME280;1284;53.520;10.248;2023-05-20T03:26:03;101980.22;;;13.84;62.48
2549;BME280;1284;53.520;10.248;2023-05-20T03:28:32;101982.03;;;13.80;63.28
2549;BME280;1284;53.520;10.248;2023-05-20T03:30:57;101980.31;;;13.87;62.84
2549;BME280;1284;53.520;10.248;2023-05-20T03:33:22;101969.56;;;13.91;63.14
2549;BME280;1284;53.520;10.248;2023-05-20T03:35:50;101968.13;;;13.81;63.58
2549;BME280;1284;53.520;10.248;2023-05-20T03:38:15;101975.16;;;13.70;64.07
2549;BME280;1284;53.520;10.248;2023-05-20T03:40:41;101983.22;;;13.54;65.85
2549;BME280;1284;53.520;10.248;2023-05-20T03:43:07;101976.88;;;13.63;65.48
2549;BME280;1284;53.520;10.248;2023-05-20T03:45:32;101976.31;;;13.57;65.80
2549;BME280;1284;53.520;10.248;2023-05-20T03:48:06;101975.66;;;13.60;65.84
2549;BME280;1284;53.520;10.248;2023-05-20T03:50:33;101975.03;;;13.67;66.51
2549;BME280;1284;53.520;10.248;2023-05-20T03:52:59;101974.84;;;13.59;67.03
2549;BME280;1284;53.520;10.248;2023-05-20T03:55:25;101971.66;;;13.70;66.34
2549;BME280;1284;53.520;10.248;2023-05-20T03:57:52;101976.72;;;13.71;66.77
2549;BME280;1284;53.520;10.248;2023-05-20T04:00:18;101975.38;;;13.77;66.98
2549;BME280;1284;53.520;10.248;2023-05-20T04:02:43;101964.53;;;13.77;67.22
2549;BME280;1284;53.520;10.248;2023-05-20T04:05:12;101972.47;;;13.70;67.60
2549;BME280;1284;53.520;10.248;2023-05-20T04:07:38;101972.91;;;13.72;68.30
2549;BME280;1284;53.520;10.248;2023-05-20T04:10:06;101981.03;;;13.72;68.26
2549;BME280;1284;53.520;10.248;2023-05-20T04:12:35;101978.06;;;13.77;68.72
2549;BME280;1284;53.520;10.248;2023-05-20T04:15:02;101982.78;;;13.80;68.37
2549;BME280;1284;53.520;10.248;2023-05-20T04:17:34;101982.16;;;13.71;69.42
2549;BME280;1284;53.520;10.248;2023-05-20T04:20:03;101973.81;;;13.76;69.69
2549;BME280;1284;53.520;10.248;2023-05-20T04:22:32;101979.31;;;13.80;70.66
2549;BME280;1284;53.520;10.248;2023-05-20T04:24:58;101982.69;;;13.77;70.85
2549;BME280;1284;53.520;10.248;2023-05-20T04:27:27;101969.84;;;13.74;71.48
2549;BME280;1284;53.520;10.248;2023-05-20T04:29:52;101981.09;;;13.88;71.23
2549;BME280;1284;53.520;10.248;2023-05-20T04:32:19;101978.94;;;13.93;71.28
2549;BME280;1284;53.520;10.248;2023-05-20T04:34:46;101978.31;;;14.00;71.24
2549;BME280;1284;53.520;10.248;2023-05-20T04:37:12;101982.97;;;13.99;71.24
2549;BME280;1284;53.520;10.248;2023-05-20T04:39:39;101982.09;;;13.95;72.00
2549;BME280;1284;53.520;10.248;2023-05-20T04:42:11;101991.31;;;13.94;72.45
2549;BME280;1284;53.520;10.248;2023-05-20T04:44:37;101983.41;;;14.01;72.58
2549;BME280;1284;53.520;10.248;2023-05-20T04:47:04;101984.19;;;14.02;72.58
2549;BME280;1284;53.520;10.248;2023-05-20T04:49:34;101983.16;;;14.06;72.56
2549;BME280;1284;53.520;10.248;2023-05-20T04:52:01;101982.91;;;14.11;73.09
2549;BME280;1284;53.520;10.248;2023-05-20T04:54:26;101985.97;;;14.10;73.52
2549;BME280;1284;53.520;10.248;2023-05-20T04:56:52;101973.34;;;14.02;73.85
2549;BME280;1284;53.520;10.248;2023-05-20T04:59:18;101978.84;;;14.05;73.90
2549;BME280;1284;53.520;10.248;2023-05-20T05:01:43;101992.28;;;14.14;74.55
2549;BME280;1284;53.520;10.248;2023-05-20T05:04:09;101983.28;;;14.25;73.92
2549;BME280;1284;53.520;10.248;2023-05-20T05:06:35;101987.19;;;14.12;74.19
2549;BME280;1284;53.520;10.248;2023-05-20T05:09:01;101985.50;;;14.08;75.08
2549;BME280;1284;53.520;10.248;2023-05-20T05:11:26;101988.53;;;14.18;74.75
2549;BME280;1284;53.520;10.248;2023-05-20T05:13:53;101990.63;;;14.25;74.67
2549;BME280;1284;53.520;10.248;2023-05-20T05:16:22;101982.56;;;14.40;74.29
2549;BME280;1284;53.520;10.248;2023-05-20T05:18:47;101978.19;;;14.36;74.54
2549;BME280;1284;53.520;10.248;2023-05-20T05:21:13;101985.03;;;14.45;74.76
2549;BME280;1284;53.520;10.248;2023-05-20T05:23:39;101979.97;;;14.60;74.11
2549;BME280;1284;53.520;10.248;2023-05-20T05:26:07;101980.75;;;14.60;74.20
2549;BME280;1284;53.520;10.248;2023-05-20T05:28:32;101990.13;;;14.78;73.76
2549;BME280;1284;53.520;10.248;2023-05-20T05:30:59;101995.19;;;14.80;73.59
2549;BME280;1284;53.520;10.248;2023-05-20T05:33:26;101993.97;;;14.93;73.12
2549;BME280;1284;53.520;10.248;2023-05-20T05:35:52;101984.50;;;15.02;73.23
2549;BME280;1284;53.520;10.248;2023-05-20T05:38:18;101982.94;;;15.17;72.18
2549;BME280;1284;53.520;10.248;2023-05-20T05:40:43;101997.16;;;15.29;71.88
2549;BME280;1284;53.520;10.248;2023-05-20T05:43:10;101988.66;;;15.47;71.45
2549;BME280;1284;53.520;10.248;2023-05-20T05:48:21;101991.19;;;15.74;70.16
2549;BME280;1284;53.520;10.248;2023-05-20T05:53:34;101988.34;;;16.05;69.97
2549;BME280;1284;53.520;10.248;2023-05-20T05:56:00;101984.09;;;16.27;68.68
2549;BME280;1284;53.520;10.248;2023-05-20T05:58:25;101983.16;;;16.39;68.01
2549;BME280;1284;53.520;10.248;2023-05-20T06:00:51;101987.28;;;16.52;67.42
2549;BME280;1284;53.520;10.248;2023-05-20T06:03:17;101993.66;;;16.59;67.82
2549;BME280;1284;53.520;10.248;2023-05-20T06:05:46;101982.47;;;16.87;67.26
2549;BME280;1284;53.520;10.248;2023-05-20T06:08:11;101984.09;;;16.91;66.05
2549;BME280;1284;53.520;10.248;2023-05-20T06:10:37;101979.75;;;17.13;64.77
2549;BME280;1284;53.520;10.248;2023-05-20T06:13:03;101976.41;;;17.23;64.60
2549;BME280;1284;53.520;10.248;2023-05-20T06:15:29;101973.88;;;17.37;64.23
2549;BME280;1284;53.520;10.248;2023-05-20T06:17:55;101982.75;;;17.57;64.43
2549;BME280;1284;53.520;10.248;2023-05-20T06:20:21;101987.19;;;17.68;63.65
2549;BME280;1284;53.520;10.248;2023-05-20T06:22:46;101980.03;;;17.86;62.81
2549;BME280;1284;53.520;10.248;2023-05-20T06:25:12;101987.91;;;17.95;62.12
2549;BME280;1284;53.520;10.248;2023-05-20T06:27:39;101979.44;;;18.03;62.16
2549;BME280;1284;53.520;10.248;2023-05-20T06:30:08;101976.44;;;18.16;61.16
2549;BME280;1284;53.520;10.248;2023-05-20T06:32:36;101975.00;;;18.25;61.05
2549;BME280;1284;53.520;10.248;2023-05-20T06:35:02;101972.78;;;18.38;61.15
2549;BME280;1284;53.520;10.248;2023-05-20T06:37:28;101963.50;;;18.42;60.34
2549;BME280;1284;53.520;10.248;2023-05-20T06:39:54;101974.44;;;18.42;60.61
2549;BME280;1284;53.520;10.248;2023-05-20T06:42:22;101980.72;;;18.50;60.58
2549;BME280;1284;53.520;10.248;2023-05-20T06:45:01;101971.50;;;18.65;60.42
2549;BME280;1284;53.520;10.248;2023-05-20T06:47:35;101973.97;;;18.77;59.99
2549;BME280;1284;53.520;10.248;2023-05-20T06:50:02;101982.16;;;18.80;60.50
2549;BME280;1284;53.520;10.248;2023-05-20T06:52:28;101973.94;;;18.73;59.00
2549;BME280;1284;53.520;10.248;2023-05-20T06:54:54;101989.84;;;18.68;58.57
2549;BME280;1284;53.520;10.248;2023-05-20T06:57:19;101980.22;;;18.77;58.79
2549;BME280;1284;53.520;10.248;2023-05-20T06:59:46;101982.75;;;19.04;58.58
2549;BME280;1284;53.520;10.248;2023-05-20T07:02:13;101984.78;;;19.17;57.82
2549;BME280;1284;53.520;10.248;2023-05-20T07:04:39;101970.88;;;19.33;57.60
2549;BME280;1284;53.520;10.248;2023-05-20T07:07:04;101970.56;;;19.45;56.86
2549;BME280;1284;53.520;10.248;2023-05-20T07:09:30;101968.25;;;19.54;56.29
2549;BME280;1284;53.520;10.248;2023-05-20T07:11:56;101969.88;;;19.65;56.07
2549;BME280;1284;53.520;10.248;2023-05-20T07:14:21;101968.34;;;19.78;55.45
2549;BME280;1284;53.520;10.248;2023-05-20T07:16:47;101965.63;;;19.78;54.38
2549;BME280;1284;53.520;10.248;2023-05-20T07:19:13;101959.78;;;19.84;55.12
2549;BME280;1284;53.520;10.248;2023-05-20T07:21:38;101970.00;;;20.04;55.78
2549;BME280;1284;53.520;10.248;2023-05-20T07:24:16;101974.72;;;20.14;54.91
2549;BME280;1284;53.520;10.248;2023-05-20T07:26:42;101976.75;;;20.28;53.95
2549;BME280;1284;53.520;10.248;2023-05-20T07:29:08;101965.44;;;20.40;53.44
2549;BME280;1284;53.520;10.248;2023-05-20T07:31:35;101965.81;;;20.56;53.11
2549;BME280;1284;53.520;10.248;2023-05-20T07:34:00;101965.03;;;20.62;53.09
2549;BME280;1284;53.520;10.248;2023-05-20T07:36:27;101962.69;;;20.75;52.59
2549;BME280;1284;53.520;10.248;2023-05-20T07:38:53;101962.28;;;20.73;52.34
2549;BME280;1284;53.520;10.248;2023-05-20T07:41:19;101957.22;;;20.86;52.46
2549;BME280;1284;53.520;10.248;2023-05-20T07:43:45;101958.78;;;20.83;52.52
2549;BME280;1284;53.520;10.248;2023-05-20T07:46:11;101953.69;;;20.78;51.94
2549;BME280;1284;53.520;10.248;2023-05-20T07:48:36;101952.16;;;21.05;52.03
2549;BME280;1284;53.520;10.248;2023-05-20T07:51:03;101954.88;;;20.88;50.70
2549;BME280;1284;53.520;10.248;2023-05-20T07:53:28;101944.31;;;21.04;50.54
2549;BME280;1284;53.520;10.248;2023-05-20T07:55:57;101947.44;;;21.06;50.56
2549;BME280;1284;53.520;10.248;2023-05-20T07:58:26;101948.59;;;20.98;50.33
2549;BME280;1284;53.520;10.248;2023-05-20T08:00:51;101944.22;;;21.35;50.29
2549;BME280;1284;53.520;10.248;2023-05-20T08:03:17;101954.03;;;21.36;49.05
2549;BME280;1284;53.520;10.248;2023-05-20T08:06:04;101949.00;;;21.00;50.08
2549;BME280;1284;53.520;10.248;2023-05-20T08:08:30;101951.72;;;21.24;49.73
2549;BME280;1284;53.520;10.248;2023-05-20T08:11:01;101950.16;;;21.23;49.84
2549;BME280;1284;53.520;10.248;2023-05-20T08:13:28;101948.22;;;21.13;49.27
2549;BME280;1284;53.520;10.248;2023-05-20T08:15:54;101952.91;;;20.92;49.16
2549;BME280;1284;53.520;10.248;2023-05-20T08:18:19;101956.81;;;20.48;49.85
2549;BME280;1284;53.520;10.248;2023-05-20T08:20:46;101947.78;;;20.27;50.50
2549;BME280;1284;53.520;10.248;2023-05-20T08:23:12;101953.19;;;20.09;50.78
2549;BME280;1284;53.520;10.248;2023-05-20T08:25:37;101944.97;;;19.99;50.85
2549;BME280;1284;53.520;10.248;2023-05-20T08:28:04;101941.50;;;20.16;51.00
2549;BME280;1284;53.520;10.248;2023-05-20T08:30:32;101945.06;;;20.23;50.84
2549;BME280;1284;53.520;10.248;2023-05-20T08:32:59;101936.47;;;20.28;50.88
2549;BME280;1284;53.520;10.248;2023-05-20T08:35:26;101936.09;;;20.30;50.41
2549;BME280;1284;53.520;10.248;2023-05-20T08:37:52;101932.19;;;20.45;50.21
2549;BME280;1284;53.520;10.248;2023-05-20T08:40:21;101928.69;;;20.51;50.69
2549;BME280;1284;53.520;10.248;2023-05-20T08:42:48;101926.72;;;20.59;51.56
2549;BME280;1284;53.520;10.248;2023-05-20T08:45:17;101918.50;;;20.59;51.75
2549;BME280;1284;53.520;10.248;2023-05-20T08:47:43;101918.88;;;20.64;51.03
2549;BME280;1284;53.520;10.248;2023-05-20T08:50:13;101920.47;;;20.58;50.10
2549;BME280;1284;53.520;10.248;2023-05-20T08:52:43;101923.19;;;20.48;50.08
2549;BME280;1284;53.520;10.248;2023-05-20T08:55:13;101922.78;;;20.42;48.81
2549;BME280;1284;53.520;10.248;2023-05-20T08:57:40;101927.50;;;20.45;49.60
2549;BME280;1284;53.520;10.248;2023-05-20T09:00:07;101921.63;;;20.33;50.68
2549;BME280;1284;53.520;10.248;2023-05-20T09:02:38;101916.53;;;20.31;49.69
2549;BME280;1284;53.520;10.248;2023-05-20T09:05:04;101909.50;;;20.34;50.11
2549;BME280;1284;53.520;10.248;2023-05-20T09:07:30;101910.22;;;19.99;49.16
2549;BME280;1284;53.520;10.248;2023-05-20T09:09:56;101902.03;;;20.17;50.02
2549;BME280;1284;53.520;10.248;2023-05-20T09:12:21;101912.22;;;20.23;49.91
2549;BME280;1284;53.520;10.248;2023-05-20T09:14:47;101910.66;;;20.54;49.61
2549;BME280;1284;53.520;10.248;2023-05-20T09:17:14;101900.50;;;20.86;50.20
2549;BME280;1284;53.520;10.248;2023-05-20T09:19:39;101902.72;;;21.33;49.44
2549;BME280;1284;53.520;10.248;2023-05-20T09:22:05;101913.22;;;21.60;46.99
2549;BME280;1284;53.520;10.248;2023-05-20T09:27:18;101911.94;;;21.78;46.34
2549;BME280;1284;53.520;10.248;2023-05-20T09:29:46;101895.50;;;21.71;45.86
2549;BME280;1284;53.520;10.248;2023-05-20T09:32:13;101894.00;;;21.60;47.38
2549;BME280;1284;53.520;10.248;2023-05-20T09:34:38;101897.53;;;21.56;47.01
2549;BME280;1284;53.520;10.248;2023-05-20T09:37:06;101896.88;;;21.24;47.18
2549;BME280;1284;53.520;10.248;2023-05-20T09:39:42;101884.81;;;20.87;47.06
2549;BME280;1284;53.520;10.248;2023-05-20T09:42:25;101896.59;;;20.62;47.98
2549;BME280;1284;53.520;10.248;2023-05-20T09:47:38;101897.00;;;20.61;48.85
2549;BME280;1284;53.520;10.248;2023-05-20T09:50:08;101898.56;;;20.34;48.92
2549;BME280;1284;53.520;10.248;2023-05-20T09:52:37;101882.53;;;20.32;49.58
2549;BME280;1284;53.520;10.248;2023-05-20T09:55:07;101888.00;;;20.39;50.08
2549;BME280;1284;53.520;10.248;2023-05-20T09:57:35;101884.88;;;20.34;50.15
2549;BME280;1284;53.520;10.248;2023-05-20T10:02:43;101901.69;;;20.36;49.57
2549;BME280;1284;53.520;10.248;2023-05-20T10:05:31;101894.66;;;20.42;49.67
2549;BME280;1284;53.520;10.248;2023-05-20T10:19:04;101867.69;;;20.44;48.97
2549;BME280;1284;53.520;10.248;2023-05-20T10:21:35;101873.13;;;20.65;50.25
2549;BME280;1284;53.520;10.248;2023-05-20T10:24:06;101860.16;;;21.08;48.81
2549;BME280;1284;53.520;10.248;2023-05-20T10:26:40;101864.28;;;21.47;48.62
2549;BME280;1284;53.520;10.248;2023-05-20T10:29:18;101845.47;;;21.49;47.02
2549;BME280;1284;53.520;10.248;2023-05-20T10:31:47;101863.47;;;21.50;47.67
2549;BME280;1284;53.520;10.248;2023-05-20T10:34:21;101861.88;;;21.60;49.24
2549;BME280;1284;53.520;10.248;2023-05-20T10:39:23;101858.19;;;22.42;48.22
2549;BME280;1284;53.520;10.248;2023-05-20T10:41:50;101846.81;;;22.40;45.86
2549;BME280;1284;53.520;10.248;2023-05-20T10:44:15;101859.72;;;22.43;46.70
2549;BME280;1284;53.520;10.248;2023-05-20T10:46:40;101853.31;;;22.64;46.00
2549;BME280;1284;53.520;10.248;2023-05-20T10:49:16;101854.66;;;21.94;46.19
2549;BME280;1284;53.520;10.248;2023-05-20T10:51:43;101849.00;;;22.15;46.13
2549;BME280;1284;53.520;10.248;2023-05-20T10:54:13;101840.69;;;22.22;45.86
2549;BME280;1284;53.520;10.248;2023-05-20T10:56:39;101844.59;;;22.25;46.83
2549;BME280;1284;53.520;10.248;2023-05-20T10:59:15;101843.94;;;22.10;46.07
2549;BME280;1284;53.520;10.248;2023-05-20T11:01:41;101848.03;;;21.85;46.31
2549;BME280;1284;53.520;10.248;2023-05-20T11:04:08;101843.53;;;21.50;47.02
2549;BME280;1284;53.520;10.248;2023-05-20T11:06:33;101824.44;;;21.25;47.67
2549;BME280;1284;53.520;10.248;2023-05-20T11:09:03;101830.34;;;21.20;47.75
2549;BME280;1284;53.520;10.248;2023-05-20T11:11:32;101819.81;;;21.08;48.71
2549;BME280;1284;53.520;10.248;2023-05-20T11:13:58;101823.38;;;21.05;48.91
2549;BME280;1284;53.520;10.248;2023-05-20T11:16:24;101830.78;;;21.08;49.12
2549;BME280;1284;53.520;10.248;2023-05-20T11:18:50;101820.19;;;21.14;48.75
2549;BME280;1284;53.520;10.248;2023-05-20T11:24:02;101826.88;;;20.95;49.46
2549;BME280;1284;53.520;10.248;2023-05-20T11:26:28;101823.31;;;21.12;48.90
2549;BME280;1284;53.520;10.248;2023-05-20T11:28:53;101824.53;;;21.11;48.67
2549;BME280;1284;53.520;10.248;2023-05-20T11:31:19;101823.69;;;21.18;48.80
2549;BME280;1284;53.520;10.248;2023-05-20T11:33:44;101834.28;;;21.19;49.08
2549;BME280;1284;53.520;10.248;2023-05-20T11:36:10;101824.44;;;21.25;48.89
2549;BME280;1284;53.520;10.248;2023-05-20T11:38:39;101829.84;;;21.39;48.46
2549;BME280;1284;53.520;10.248;2023-05-20T11:41:05;101817.75;;;21.33;47.97
2549;BME280;1284;53.520;10.248;2023-05-20T11:43:32;101825.53;;;21.42;47.79
2549;BME280;1284;53.520;10.248;2023-05-20T11:45:58;101824.00;;;21.37;48.64
2549;BME280;1284;53.520;10.248;2023-05-20T11:48:24;101822.78;;;21.45;48.39
2549;BME280;1284;53.520;10.248;2023-05-20T11:50:53;101820.03;;;21.45;48.52
2549;BME280;1284;53.520;10.248;2023-05-20T11:53:20;101823.53;;;21.49;48.47
2549;BME280;1284;53.520;10.248;2023-05-20T11:55:58;101830.31;;;21.24;49.15
2549;BME280;1284;53.520;10.248;2023-05-20T11:58:28;101821.78;;;21.11;49.78
2549;BME280;1284;53.520;10.248;2023-05-20T12:00:54;101826.88;;;20.99;49.73
2549;BME280;1284;53.520;10.248;2023-05-20T12:03:20;101820.63;;;20.95;50.01
2549;BME280;1284;53.520;10.248;2023-05-20T12:05:46;101823.81;;;20.76;49.71
2549;BME280;1284;53.520;10.248;2023-05-20T12:08:13;101820.31;;;20.64;50.72
2549;BME280;1284;53.520;10.248;2023-05-20T12:10:38;101812.88;;;20.72;50.03
2549;BME280;1284;53.520;10.248;2023-05-20T12:13:04;101819.88;;;20.84;50.62
2549;BME280;1284;53.520;10.248;2023-05-20T12:18:22;101808.16;;;20.76;49.80
2549;BME280;1284;53.520;10.248;2023-05-20T12:20:47;101804.16;;;21.12;49.49
2549;BME280;1284;53.520;10.248;2023-05-20T12:25:59;101806.22;;;20.69;50.07
2549;BME280;1284;53.520;10.248;2023-05-20T12:28:25;101799.53;;;20.78;50.13
2549;BME280;1284;53.520;10.248;2023-05-20T12:30:50;101798.31;;;21.07;49.13
2549;BME280;1284;53.520;10.248;2023-05-20T12:33:16;101794.38;;;21.11;49.42
2549;BME280;1284;53.520;10.248;2023-05-20T12:35:42;101789.63;;;21.22;49.20
2549;BME280;1284;53.520;10.248;2023-05-20T12:38:08;101788.81;;;21.25;48.90
2549;BME280;1284;53.520;10.248;2023-05-20T12:40:35;101786.97;;;21.05;48.51
2549;BME280;1284;53.520;10.248;2023-05-20T12:43:01;101793.25;;;21.02;49.89
2549;BME280;1284;53.520;10.248;2023-05-20T12:45:27;101789.34;;;20.92;49.80
2549;BME280;1284;53.520;10.248;2023-05-20T12:47:54;101782.25;;;20.95;49.65
2549;BME280;1284;53.520;10.248;2023-05-20T12:50:20;101790.13;;;20.86;50.00
2549;BME280;1284;53.520;10.248;2023-05-20T12:52:49;101785.06;;;20.77;50.67
2549;BME280;1284;53.520;10.248;2023-05-20T12:55:15;101783.94;;;20.60;50.33
2549;BME280;1284;53.520;10.248;2023-05-20T12:57:42;101787.41;;;20.75;49.77
2549;BME280;1284;53.520;10.248;2023-05-20T13:00:11;101786.31;;;20.58;50.26
2549;BME280;1284;53.520;10.248;2023-05-20T13:02:37;101780.00;;;20.76;49.82
2549;BME280;1284;53.520;10.248;2023-05-20T13:05:04;101776.41;;;21.00;49.37
2549;BME280;1284;53.520;10.248;2023-05-20T13:07:30;101769.75;;;21.01;49.79
2549;BME280;1284;53.520;10.248;2023-05-20T13:09:57;101768.97;;;20.93;49.91
2549;BME280;1284;53.520;10.248;2023-05-20T13:12:23;101765.06;;;20.94;49.55
2549;BME280;1284;53.520;10.248;2023-05-20T13:14:49;101758.06;;;20.79;49.91
2549;BME280;1284;53.520;10.248;2023-05-20T13:17:15;101756.47;;;20.92;49.80
2549;BME280;1284;53.520;10.248;2023-05-20T13:19:40;101758.88;;;20.73;50.35
2549;BME280;1284;53.520;10.248;2023-05-20T13:22:06;101761.63;;;20.65;50.59
2549;BME280;1284;53.520;10.248;2023-05-20T13:24:33;101749.78;;;20.93;50.23
2549;BME280;1284;53.520;10.248;2023-05-20T13:26:59;101749.06;;;20.75;50.22
2549;BME280;1284;53.520;10.248;2023-05-20T13:29:26;101734.66;;;20.71;50.69
2549;BME280;1284;53.520;10.248;2023-05-20T13:31:51;101742.41;;;20.83;51.02
2549;BME280;1284;53.520;10.248;2023-05-20T13:34:17;101733.84;;;20.74;50.64
2549;BME280;1284;53.520;10.248;2023-05-20T13:36:42;101737.69;;;20.87;51.06
2549;BME280;1284;53.520;10.248;2023-05-20T13:39:09;101726.03;;;20.73;50.58
2549;BME280;1284;53.520;10.248;2023-05-20T13:41:35;101729.09;;;20.85;50.83